Time;durP1;ratioP1;P1;durP2;ratioP2;P2;SDS_P1;SDS_P2;PMS_P1;PMS_P2;Temp;Humidity;BMP_temperature;BMP_pressure;BME280_temperature;BME280_humidity;BME280_pressure;Samples;Min_cycle;Max_cycle;Signal;HPM_P1;HPM_P2
2022/07/24 00:01:13;;;;;;;11.32;7.43;;;;;;;20.05;69.62;97659.41;4981150;28;20441;-59
2022/07/24 00:03:40;;;;;;;9.55;7.25;;;;;;;20.10;69.92;97662.06;4981863;28;20046;-59
2022/07/24 00:06:07;;;;;;;10.38;7.93;;;;;;;20.04;70.40;97657.78;4980703;28;20050;-59
2022/07/24 00:08:33;;;;;;;10.25;6.60;;;;;;;20.06;70.44;97660.22;4982263;28;20100;-59
2022/07/24 00:11:00;;;;;;;10.15;7.80;;;;;;;19.95;70.43;97662.34;4981293;28;20831;-58
2022/07/24 00:13:26;;;;;;;10.80;7.88;;;;;;;19.93;70.24;97662.66;4981132;28;20038;-57
2022/07/24 00:15:53;;;;;;;9.85;7.78;;;;;;;19.90;70.51;97660.50;4981264;28;20046;-59
2022/07/24 00:18:20;;;;;;;8.77;7.43;;;;;;;19.84;70.80;97662.56;4981994;28;20045;-59
2022/07/24 00:20:46;;;;;;;9.55;7.35;;;;;;;19.74;71.50;97665.50;4980754;28;20050;-58
2022/07/24 00:23:14;;;;;;;10.35;7.53;;;;;;;19.63;71.72;97656.66;4981691;28;20140;-58
2022/07/24 00:25:41;;;;;;;8.38;7.05;;;;;;;19.68;71.47;97653.00;4981649;28;20042;-59
2022/07/24 00:28:07;;;;;;;10.90;7.72;;;;;;;19.62;71.85;97661.34;4980526;28;20116;-59
2022/07/24 00:30:35;;;;;;;9.43;7.10;;;;;;;19.68;71.32;97658.50;4981110;28;20038;-59
2022/07/24 00:33:02;;;;;;;9.30;7.30;;;;;;;19.33;73.48;97656.94;4981341;28;20584;-59
2022/07/24 00:35:28;;;;;;;13.73;8.18;;;;;;;19.15;73.86;97652.31;4981145;28;20520;-58
2022/07/24 00:37:55;;;;;;;11.20;8.95;;;;;;;19.10;73.85;97651.28;4982133;28;20058;-59
2022/07/24 00:40:21;;;;;;;11.02;8.52;;;;;;;19.16;73.64;97648.47;4981231;28;20042;-58
2022/07/24 00:42:48;;;;;;;10.00;7.40;;;;;;;19.18;74.01;97652.56;4981381;28;20049;-58
2022/07/24 00:45:14;;;;;;;12.25;8.05;;;;;;;19.28;73.65;97657.03;4981813;28;20387;-59
2022/07/24 00:47:50;;;;;;;10.30;7.53;;;;;;;19.34;72.68;97655.81;4980664;28;20054;-57
2022/07/24 00:50:17;;;;;;;11.05;7.15;;;;;;;18.98;75.20;97662.72;4980982;28;20065;-57
2022/07/24 00:52:44;;;;;;;9.85;7.38;;;;;;;19.10;74.04;97661.47;4981073;28;20050;-58
2022/07/24 00:55:12;;;;;;;11.73;7.82;;;;;;;18.78;75.50;97658.41;4982750;28;20050;-59
2022/07/24 00:57:39;;;;;;;9.52;7.07;;;;;;;18.60;76.57;97662.78;4981729;28;20046;-58
2022/07/24 01:00:07;;;;;;;10.15;7.10;;;;;;;18.72;75.88;97667.81;4980404;28;20132;-55
2022/07/24 01:02:34;;;;;;;9.23;7.43;;;;;;;18.46;76.75;97669.03;4981770;28;20042;-54
2022/07/24 01:05:00;;;;;;;11.30;8.00;;;;;;;18.27;77.77;97669.00;4981505;28;20093;-57
2022/07/24 01:07:27;;;;;;;10.70;8.07;;;;;;;18.31;77.72;97658.25;4980186;28;20042;-56
2022/07/24 01:09:54;;;;;;;12.20;7.80;;;;;;;18.21;78.10;97659.25;4980959;28;20058;-56
2022/07/24 01:12:21;;;;;;;11.68;7.75;;;;;;;17.98;80.29;97658.94;4983389;28;20065;-58
2022/07/24 01:14:47;;;;;;;10.02;7.97;;;;;;;18.12;79.11;97653.59;4986970;28;20050;-57
2022/07/24 01:17:14;;;;;;;10.43;7.57;;;;;;;18.15;78.37;97658.50;4985256;28;20046;-57
2022/07/24 01:19:41;;;;;;;11.38;7.68;;;;;;;17.96;78.88;97652.13;4984868;28;20502;-58
2022/07/24 01:22:07;;;;;;;11.95;8.43;;;;;;;17.84;79.63;97655.31;4985428;28;20046;-57
2022/07/24 01:24:34;;;;;;;11.80;7.47;;;;;;;17.98;78.77;97649.94;4986021;28;20055;-59
2022/07/24 01:27:01;;;;;;;10.70;8.23;;;;;;;17.93;78.67;97659.84;4983713;28;20050;-58
2022/07/24 01:29:27;;;;;;;8.88;7.70;;;;;;;17.57;80.44;97657.53;4984198;28;20045;-58
2022/07/24 01:31:54;;;;;;;10.70;7.82;;;;;;;17.29;81.40;97662.75;4986372;28;20066;-58
2022/07/24 01:34:20;;;;;;;8.73;7.38;;;;;;;17.21;81.98;97657.91;4985312;28;20102;-58
2022/07/24 01:36:47;;;;;;;9.73;7.05;;;;;;;17.24;81.50;97655.41;4984268;28;20089;-58
2022/07/24 01:39:13;;;;;;;10.52;7.45;;;;;;;17.21;81.42;97649.69;4984093;28;20058;-58
2022/07/24 01:41:40;;;;;;;9.88;7.80;;;;;;;17.27;80.94;97652.09;4983243;28;20038;-58
2022/07/24 01:44:06;;;;;;;9.82;7.25;;;;;;;17.44;80.21;97653.56;4984752;28;20518;-56
2022/07/24 01:46:33;;;;;;;12.25;7.80;;;;;;;17.48;80.00;97651.06;4983662;28;20046;-57
2022/07/24 01:49:00;;;;;;;10.45;7.55;;;;;;;17.39;80.82;97656.34;4978621;28;20054;-57
2022/07/24 01:51:27;;;;;;;9.82;7.63;;;;;;;17.36;80.60;97656.94;4984013;28;20065;-58
2022/07/24 01:53:54;;;;;;;9.93;7.25;;;;;;;17.37;80.44;97656.66;4982708;28;20050;-55
2022/07/24 01:56:20;;;;;;;9.68;8.00;;;;;;;17.53;79.53;97649.09;4984020;28;20052;-56
2022/07/24 01:58:48;;;;;;;9.00;7.22;;;;;;;17.52;79.39;97657.59;4983351;28;20042;-58
2022/07/24 02:01:14;;;;;;;14.77;8.82;;;;;;;17.35;80.00;97650.63;4984167;28;20058;-58
2022/07/24 02:03:41;;;;;;;13.02;8.13;;;;;;;17.41;80.16;97652.22;4984112;28;20064;-58
2022/07/24 02:06:08;;;;;;;9.98;7.30;;;;;;;17.46;79.73;97647.81;4983189;28;20097;-54
2022/07/24 02:08:34;;;;;;;11.93;7.55;;;;;;;17.46;80.09;97643.13;4984548;28;20042;-57
2022/07/24 02:11:01;;;;;;;11.48;7.88;;;;;;;17.38;80.16;97646.50;4984802;28;20038;-57
2022/07/24 02:13:27;;;;;;;9.18;7.43;;;;;;;17.00;82.06;97649.84;4984214;28;20053;-58
2022/07/24 02:15:56;;;;;;;10.13;8.00;;;;;;;16.90;81.96;97648.03;4983882;28;20026;-57
2022/07/24 02:18:22;;;;;;;10.15;8.07;;;;;;;16.96;82.29;97652.34;4983291;28;20043;-56
2022/07/24 02:20:49;;;;;;;9.90;7.15;;;;;;;17.05;81.43;97649.84;4983393;28;20058;-56
2022/07/24 02:23:17;;;;;;;9.57;7.47;;;;;;;17.15;80.83;97648.94;4981035;28;20046;-56
2022/07/24 02:25:48;;;;;;;9.13;7.63;;;;;;;17.18;80.57;97653.84;4984015;28;20042;-56
2022/07/24 02:28:15;;;;;;;9.88;7.78;;;;;;;17.13;80.93;97646.47;4982892;28;20494;-54
2022/07/24 02:30:42;;;;;;;9.80;7.30;;;;;;;17.16;80.43;97651.38;4984192;28;20061;-56
2022/07/24 02:33:09;;;;;;;10.38;8.43;;;;;;;17.13;80.63;97656.59;4982419;28;20113;-58
2022/07/24 02:35:37;;;;;;;9.63;7.30;;;;;;;17.09;80.73;97648.16;4982209;28;20490;-56
2022/07/24 02:38:04;;;;;;;10.60;7.20;;;;;;;17.15;80.49;97648.94;4983377;28;20045;-58
2022/07/24 02:40:31;;;;;;;10.18;8.10;;;;;;;17.12;80.36;97646.75;4983666;28;20058;-58
2022/07/24 02:42:57;;;;;;;10.75;7.53;;;;;;;17.14;80.34;97652.78;4983411;28;20186;-56
2022/07/24 02:45:24;;;;;;;9.98;7.65;;;;;;;17.07;80.58;97646.81;4982985;28;20050;-58
2022/07/24 02:47:53;;;;;;;10.07;7.07;;;;;;;17.07;80.40;97653.13;4982961;28;20045;-58
2022/07/24 02:50:22;;;;;;;9.48;7.13;;;;;;;17.12;80.41;97650.31;4983858;28;20050;-58
2022/07/24 02:52:49;;;;;;;10.80;7.40;;;;;;;17.14;80.05;97650.84;4983165;28;20053;-57
2022/07/24 02:55:17;;;;;;;10.15;7.28;;;;;;;17.10;80.09;97648.97;4983714;28;20050;-58
2022/07/24 02:57:43;;;;;;;9.90;8.02;;;;;;;16.85;81.51;97648.06;4982877;28;20149;-55
2022/07/24 03:00:14;;;;;;;11.95;7.85;;;;;;;16.78;82.33;97649.19;4984331;28;20057;-55
2022/07/24 03:02:41;;;;;;;10.07;7.70;;;;;;;16.71;82.37;97647.91;4985604;28;20045;-54
2022/07/24 03:05:08;;;;;;;10.93;7.43;;;;;;;16.72;82.25;97644.88;4986834;28;20046;-56
2022/07/24 03:07:38;;;;;;;11.10;8.15;;;;;;;16.81;81.85;97650.53;4982345;28;20050;-58
2022/07/24 03:10:09;;;;;;;10.75;7.82;;;;;;;16.80;81.76;97648.13;4982666;28;20327;-58
2022/07/24 03:12:36;;;;;;;12.68;8.35;;;;;;;16.74;81.92;97641.88;4983149;28;20096;-56
2022/07/24 03:15:03;;;;;;;12.80;7.85;;;;;;;16.73;81.79;97651.19;4982995;28;20034;-57
2022/07/24 03:17:29;;;;;;;9.02;7.68;;;;;;;16.76;81.45;97650.59;4982618;28;20050;-58
2022/07/24 03:19:56;;;;;;;8.98;7.10;;;;;;;16.89;80.95;97643.66;4983064;28;20250;-58
2022/07/24 03:22:22;;;;;;;9.73;7.35;;;;;;;16.87;81.04;97649.41;4982307;28;20049;-58
2022/07/24 03:24:49;;;;;;;10.73;7.70;;;;;;;16.81;81.34;97652.47;4982726;28;20057;-58
2022/07/24 03:27:16;;;;;;;11.70;8.35;;;;;;;16.61;82.25;97659.72;4983171;28;20093;-58
2022/07/24 03:29:42;;;;;;;11.30;8.38;;;;;;;16.61;82.37;97655.09;4981957;28;20505;-58
2022/07/24 03:32:09;;;;;;;9.63;7.15;;;;;;;16.66;81.76;97658.88;4983304;28;20480;-56
2022/07/24 03:34:35;;;;;;;10.65;7.53;;;;;;;16.70;81.49;97657.22;4981381;28;20046;-56
2022/07/24 03:37:02;;;;;;;9.52;7.60;;;;;;;16.75;81.02;97655.25;4982000;28;20046;-58
2022/07/24 03:39:28;;;;;;;10.27;7.47;;;;;;;16.71;81.59;97659.66;4980931;28;20449;-58
2022/07/24 03:41:55;;;;;;;10.05;7.18;;;;;;;16.79;80.68;97655.50;4982365;28;20049;-58
2022/07/24 03:44:22;;;;;;;9.73;7.35;;;;;;;16.69;81.54;97661.84;4978545;28;20463;-58
2022/07/24 03:46:48;;;;;;;10.02;7.60;;;;;;;16.67;81.64;97664.06;4980331;28;20278;-57
2022/07/24 03:49:15;;;;;;;10.38;7.90;;;;;;;16.62;81.84;97659.44;4979566;28;20104;-56
2022/07/24 03:51:43;;;;;;;11.45;8.50;;;;;;;16.59;82.82;97662.75;4979689;28;20121;-57
2022/07/24 03:54:09;;;;;;;9.15;7.50;;;;;;;16.59;82.15;97668.22;4979559;28;20236;-55
2022/07/24 03:56:36;;;;;;;10.45;7.90;;;;;;;16.69;81.69;97664.59;4980266;28;20395;-58
2022/07/24 03:59:02;;;;;;;11.55;7.70;;;;;;;16.74;81.32;97670.00;4979233;28;20042;-55
2022/07/24 04:01:29;;;;;;;9.82;8.68;;;;;;;16.77;81.22;97672.19;4981000;28;20438;-58
2022/07/24 04:03:58;;;;;;;10.65;8.07;;;;;;;16.73;81.32;97668.38;4979492;28;20086;-56
2022/07/24 04:06:24;;;;;;;15.55;7.45;;;;;;;16.79;81.64;97671.91;4980407;28;20042;-56
2022/07/24 04:08:51;;;;;;;9.95;7.38;;;;;;;16.87;80.40;97668.56;4979836;28;20065;-56
2022/07/24 04:11:17;;;;;;;9.75;7.18;;;;;;;16.91;80.94;97671.53;4979015;28;20104;-56
2022/07/24 04:13:44;;;;;;;9.23;7.25;;;;;;;16.90;80.80;97676.19;4981648;28;20050;-56
2022/07/24 04:16:10;;;;;;;10.30;7.63;;;;;;;16.70;81.96;97677.16;4982328;28;20734;-57
2022/07/24 04:18:37;;;;;;;12.50;7.63;;;;;;;16.69;82.14;97677.47;4981449;28;20160;-57
2022/07/24 04:21:04;;;;;;;10.02;7.82;;;;;;;16.64;82.21;97686.50;4981965;28;20046;-57
2022/07/24 04:23:30;;;;;;;9.43;7.90;;;;;;;16.68;82.40;97693.03;4981531;28;20050;-54
2022/07/24 04:25:57;;;;;;;9.82;7.85;;;;;;;16.66;82.83;97694.44;4982535;28;20421;-58
2022/07/24 04:28:24;;;;;;;10.50;8.15;;;;;;;16.76;82.05;97694.34;4980515;28;20050;-57
2022/07/24 04:30:51;;;;;;;9.93;8.15;;;;;;;16.84;81.38;97692.94;4982388;28;20054;-56
2022/07/24 04:33:17;;;;;;;10.77;7.95;;;;;;;16.88;81.84;97689.31;4981939;28;20706;-55
2022/07/24 04:35:44;;;;;;;9.93;7.68;;;;;;;16.88;81.37;97685.78;4981893;28;20062;-56
2022/07/24 04:38:10;;;;;;;10.23;8.07;;;;;;;17.03;80.77;97684.84;4981387;28;20057;-58
2022/07/24 04:40:37;;;;;;;9.63;7.80;;;;;;;17.12;80.72;97690.53;4980048;28;20301;-56
2022/07/24 04:43:04;;;;;;;9.27;6.93;;;;;;;17.15;80.54;97688.03;4982422;28;20042;-58
2022/07/24 04:45:31;;;;;;;11.60;7.85;;;;;;;17.21;80.37;97694.28;4982632;28;20054;-57
2022/07/24 04:48:01;;;;;;;11.55;8.57;;;;;;;17.22;79.94;97685.00;4980697;28;20472;-54
2022/07/24 04:50:27;;;;;;;11.30;7.65;;;;;;;17.28;79.77;97681.09;4981194;28;20048;-57
2022/07/24 04:52:54;;;;;;;10.65;7.82;;;;;;;17.35;79.33;97686.22;4981816;28;20502;-57
2022/07/24 04:55:21;;;;;;;11.38;8.18;;;;;;;17.39;79.44;97681.78;4978221;28;20894;-57
2022/07/24 04:57:47;;;;;;;9.70;6.90;;;;;;;17.48;79.03;97690.22;4979628;28;20113;-54
2022/07/24 05:00:14;;;;;;;11.75;6.80;;;;;;;17.53;78.65;97684.66;4978844;28;20050;-54
2022/07/24 05:02:41;;;;;;;10.85;7.93;;;;;;;17.62;78.48;97689.50;4979576;28;20108;-57
2022/07/24 05:05:08;;;;;;;9.40;7.30;;;;;;;17.79;77.59;97692.59;4978310;28;20528;-57
2022/07/24 05:07:34;;;;;;;10.57;7.70;;;;;;;17.93;77.11;97689.97;4979358;28;20058;-58
2022/07/24 05:10:01;;;;;;;11.20;8.77;;;;;;;17.93;77.10;97697.38;4977828;28;20234;-57
2022/07/24 05:12:28;;;;;;;12.23;7.35;;;;;;;18.07;76.49;97700.22;4980073;28;20049;-58
2022/07/24 05:14:54;;;;;;;8.32;6.65;;;;;;;18.18;75.99;97704.47;4978742;28;20061;-58
2022/07/24 05:17:21;;;;;;;9.15;7.80;;;;;;;18.30;75.70;97698.59;4978841;28;20285;-58
2022/07/24 05:19:47;;;;;;;9.80;7.13;;;;;;;18.40;75.54;97696.81;4978352;28;20449;-58
2022/07/24 05:22:14;;;;;;;11.30;7.95;;;;;;;18.45;75.67;97700.28;4979731;28;20049;-58
2022/07/24 05:24:40;;;;;;;9.73;7.20;;;;;;;18.59;74.88;97696.81;4979148;28;20494;-58
2022/07/24 05:27:07;;;;;;;10.43;7.13;;;;;;;18.77;74.61;97697.91;4979493;28;20049;-56
2022/07/24 05:29:38;;;;;;;8.93;6.90;;;;;;;18.97;73.68;97695.94;4979268;28;20505;-58
2022/07/24 05:32:08;;;;;;;9.05;6.45;;;;;;;19.21;71.87;97698.59;4978615;28;20522;-58
2022/07/24 05:34:34;;;;;;;9.20;7.13;;;;;;;19.32;71.81;97691.00;4977534;28;20074;-58
2022/07/24 05:37:07;;;;;;;9.13;6.40;;;;;;;19.46;71.40;97693.75;4979108;28;20509;-58
2022/07/24 05:39:34;;;;;;;8.35;6.65;;;;;;;19.63;70.95;97689.63;4978426;28;20159;-58
2022/07/24 05:42:00;;;;;;;9.35;6.30;;;;;;;19.80;69.96;97705.50;4980182;28;20046;-58
2022/07/24 05:44:27;;;;;;;11.30;6.88;;;;;;;19.92;69.52;97696.75;4978382;28;20046;-57
2022/07/24 05:46:53;;;;;;;13.15;6.70;;;;;;;19.97;69.84;97695.84;4977432;28;20061;-57
2022/07/24 05:49:20;;;;;;;8.70;6.43;;;;;;;19.95;69.57;97695.31;4978573;28;20038;-57
2022/07/24 05:51:47;;;;;;;8.90;6.82;;;;;;;20.14;68.58;97692.50;4978125;28;20042;-59
2022/07/24 05:54:13;;;;;;;10.05;6.78;;;;;;;20.29;68.14;97685.84;4980053;28;20042;-57
2022/07/24 05:56:40;;;;;;;9.00;6.80;;;;;;;20.49;67.03;97697.53;4979228;28;20057;-58
2022/07/24 05:59:07;;;;;;;7.97;5.97;;;;;;;20.52;67.10;97696.88;4980901;28;20259;-58
2022/07/24 06:01:34;;;;;;;7.90;6.38;;;;;;;20.62;66.64;97682.91;4984393;28;20049;-56
2022/07/24 06:04:01;;;;;;;9.10;6.78;;;;;;;20.82;65.54;97691.78;4984398;28;20399;-54
2022/07/24 06:06:28;;;;;;;8.57;5.80;;;;;;;20.96;64.63;97691.78;4983510;28;20049;-58
2022/07/24 06:08:54;;;;;;;7.30;5.80;;;;;;;21.10;64.32;97696.41;4984583;28;20039;-58
2022/07/24 06:11:22;;;;;;;7.15;5.82;;;;;;;21.25;64.01;97697.94;4984578;28;20097;-56
2022/07/24 06:13:50;;;;;;;8.43;5.00;;;;;;;21.42;63.70;97691.75;4984374;28;20046;-58
2022/07/24 06:16:17;;;;;;;8.15;6.18;;;;;;;21.56;62.49;97689.69;4983190;28;20517;-57
2022/07/24 06:18:43;;;;;;;8.07;5.35;;;;;;;21.69;61.52;97690.72;4984683;28;21108;-57
2022/07/24 06:21:10;;;;;;;7.82;5.97;;;;;;;21.75;61.35;97687.88;4983820;28;20047;-58
2022/07/24 06:23:36;;;;;;;8.13;5.65;;;;;;;21.82;59.72;97696.50;4983375;28;20104;-58
2022/07/24 06:26:03;;;;;;;7.03;5.28;;;;;;;21.87;59.83;97693.59;4984350;28;20031;-59
2022/07/24 06:28:30;;;;;;;9.55;6.13;;;;;;;22.09;58.41;97692.69;4982900;28;20054;-59
2022/07/24 06:30:57;;;;;;;6.60;5.15;;;;;;;22.27;58.10;97691.91;4982044;28;20370;-59
2022/07/24 06:33:25;;;;;;;8.50;5.40;;;;;;;22.37;57.09;97693.53;4984216;28;20076;-58
2022/07/24 06:35:52;;;;;;;7.50;5.22;;;;;;;22.55;56.95;97695.19;4982627;28;20046;-58
2022/07/24 06:38:18;;;;;;;8.73;5.55;;;;;;;22.70;57.47;97687.59;4980900;28;20361;-57
2022/07/24 06:40:45;;;;;;;9.13;5.70;;;;;;;22.80;57.76;97694.72;4980915;28;20069;-56
2022/07/24 06:43:11;;;;;;;8.25;6.32;;;;;;;22.85;57.44;97686.28;4980269;28;21232;-57
2022/07/24 06:45:38;;;;;;;8.40;5.80;;;;;;;22.90;56.16;97688.88;4979183;28;20053;-55
2022/07/24 06:48:05;;;;;;;8.60;5.70;;;;;;;22.95;56.25;97691.47;4980876;28;20050;-59
2022/07/24 06:50:32;;;;;;;8.13;6.13;;;;;;;23.02;56.17;97687.38;4979547;28;20058;-61
2022/07/24 06:52:58;;;;;;;10.43;5.88;;;;;;;23.12;56.67;97684.31;4980796;28;20050;-60
2022/07/24 06:55:25;;;;;;;7.55;5.65;;;;;;;23.17;56.37;97694.34;4982087;28;20053;-56
2022/07/24 06:57:51;;;;;;;8.02;5.40;;;;;;;23.23;55.50;97691.13;4980088;28;20046;-56
2022/07/24 07:00:18;;;;;;;7.38;5.82;;;;;;;23.31;54.78;97689.47;4980796;28;20054;-60
2022/07/24 07:02:45;;;;;;;6.95;5.22;;;;;;;23.42;55.24;97686.38;4981411;28;20046;-60
2022/07/24 07:05:12;;;;;;;6.22;5.10;;;;;;;23.43;54.29;97699.06;4980712;28;20560;-60
2022/07/24 07:07:39;;;;;;;7.20;5.22;;;;;;;23.41;54.42;97688.34;4980727;28;20105;-58
2022/07/24 07:10:06;;;;;;;8.95;5.80;;;;;;;23.44;53.70;97697.91;4980511;28;20057;-60
2022/07/24 07:12:33;;;;;;;7.53;5.82;;;;;;;23.44;54.30;97693.19;4986628;28;20046;-60
2022/07/24 07:15:07;;;;;;;6.43;5.18;;;;;;;23.69;54.27;97681.59;4982748;28;20034;-65
2022/07/24 07:17:36;;;;;;;10.00;6.00;;;;;;;23.78;53.10;97688.66;4980672;28;20042;-65
2022/07/24 07:20:04;;;;;;;18.48;9.98;;;;;;;23.86;52.66;97691.75;4980214;28;20058;-66
2022/07/24 07:22:31;;;;;;;10.65;7.55;;;;;;;23.93;52.57;97697.56;4980613;28;20073;-66
2022/07/24 07:24:57;;;;;;;7.95;5.30;;;;;;;23.99;52.72;97690.69;4980623;28;20062;-66
2022/07/24 07:27:24;;;;;;;9.57;6.15;;;;;;;24.09;52.13;97688.69;4980836;28;20038;-65
2022/07/24 07:29:50;;;;;;;8.27;5.57;;;;;;;24.11;51.98;97690.03;4980245;28;20096;-65
2022/07/24 07:32:17;;;;;;;9.82;5.40;;;;;;;24.16;52.23;97694.53;4979306;28;20059;-65
2022/07/24 07:34:44;;;;;;;10.60;6.25;;;;;;;24.15;51.66;97701.22;4979973;28;20121;-65
2022/07/24 07:37:10;;;;;;;6.93;5.78;;;;;;;24.21;51.42;97699.88;4979163;28;20528;-65
2022/07/24 07:39:37;;;;;;;6.75;5.68;;;;;;;24.29;51.45;97706.50;4980097;28;20506;-66
2022/07/24 07:42:04;;;;;;;7.32;5.95;;;;;;;24.34;50.72;97699.97;4980124;28;20136;-66
2022/07/24 07:44:30;;;;;;;8.25;5.70;;;;;;;24.40;50.72;97690.34;4980890;28;20046;-66
2022/07/24 07:46:57;;;;;;;10.05;5.60;;;;;;;24.47;50.49;97695.31;4979011;28;20051;-66
2022/07/24 07:49:24;;;;;;;7.55;5.30;;;;;;;24.57;50.57;97689.38;4981409;28;20580;-66
2022/07/24 07:51:51;;;;;;;10.43;5.75;;;;;;;24.76;50.20;97690.88;4979454;28;20034;-66
2022/07/24 07:54:18;;;;;;;9.82;6.10;;;;;;;24.97;50.85;97690.06;4979603;28;20143;-66
2022/07/24 07:56:45;;;;;;;8.57;5.65;;;;;;;25.00;49.98;97698.50;4979209;28;20488;-66
2022/07/24 07:59:11;;;;;;;7.70;5.70;;;;;;;24.97;49.96;97692.81;4979877;28;20062;-65
2022/07/24 08:01:38;;;;;;;7.47;5.90;;;;;;;24.99;49.78;97690.53;4980420;28;20065;-65
2022/07/24 08:04:05;;;;;;;7.43;5.50;;;;;;;25.06;49.53;97696.34;4979981;28;20048;-65
2022/07/24 08:06:31;;;;;;;8.88;5.88;;;;;;;25.09;49.85;97697.63;4981539;28;20096;-65
2022/07/24 08:08:58;;;;;;;7.65;6.00;;;;;;;25.12;50.37;97700.50;4981631;28;20042;-65
2022/07/24 08:11:25;;;;;;;6.93;5.63;;;;;;;25.09;50.18;97694.84;4982353;28;20774;-65
2022/07/24 08:13:53;;;;;;;7.75;5.97;;;;;;;25.01;49.73;97689.03;4981589;28;20049;-65
2022/07/24 08:16:20;;;;;;;31.17;16.60;;;;;;;25.10;49.85;97702.81;4980777;28;20438;-65
2022/07/24 08:18:46;;;;;;;7.85;5.97;;;;;;;25.20;49.54;97690.47;4981496;28;20100;-65
2022/07/24 08:21:18;;;;;;;7.20;6.05;;;;;;;25.30;50.02;97692.03;4981065;28;20070;-66
2022/07/24 08:23:45;;;;;;;8.13;6.43;;;;;;;25.34;49.11;97687.41;4980386;28;20047;-65
2022/07/24 08:26:12;;;;;;;9.48;5.95;;;;;;;25.36;49.35;97689.84;4981478;28;20529;-65
2022/07/24 08:28:38;;;;;;;11.43;6.20;;;;;;;25.40;49.03;97688.81;4981573;28;20046;-65
2022/07/24 08:31:05;;;;;;;9.45;6.45;;;;;;;25.30;49.14;97686.47;4982157;28;20034;-65
2022/07/24 08:33:32;;;;;;;18.38;11.13;;;;;;;25.44;49.58;97684.22;4980838;28;20044;-65
2022/07/24 08:35:58;;;;;;;10.20;6.78;;;;;;;25.36;48.71;97681.53;4980972;28;20150;-65
2022/07/24 08:38:25;;;;;;;8.63;6.30;;;;;;;25.45;48.35;97685.00;4979356;28;20049;-65
2022/07/24 08:40:52;;;;;;;10.88;5.78;;;;;;;25.51;48.43;97685.59;4979437;28;20050;-65
2022/07/24 08:43:18;;;;;;;7.95;5.63;;;;;;;25.47;48.28;97682.72;4979527;28;20046;-65
2022/07/24 08:45:45;;;;;;;9.38;5.95;;;;;;;25.67;47.72;97688.53;4978661;28;20053;-65
2022/07/24 08:48:11;;;;;;;7.95;6.28;;;;;;;25.96;47.24;97681.16;4978884;28;20039;-65
2022/07/24 08:50:41;;;;;;;8.23;6.15;;;;;;;25.83;46.94;97683.09;4979540;28;20031;-65
2022/07/24 08:53:09;;;;;;;9.02;5.72;;;;;;;26.02;46.59;97676.97;4977893;28;20046;-65
2022/07/24 08:55:35;;;;;;;9.00;5.50;;;;;;;26.20;45.29;97682.31;4979656;28;20042;-65
2022/07/24 08:58:02;;;;;;;8.45;5.75;;;;;;;26.16;45.45;97684.97;4978537;28;20510;-65
2022/07/24 09:00:30;;;;;;;7.60;5.65;;;;;;;26.08;45.57;97678.38;4979854;28;20510;-65
2022/07/24 09:02:57;;;;;;;8.52;6.18;;;;;;;25.65;46.23;97682.53;4978323;28;20125;-65
2022/07/24 09:05:24;;;;;;;7.65;6.20;;;;;;;25.91;46.02;97684.16;4979336;28;20436;-65
2022/07/24 09:08:09;;;;;;;7.75;5.85;;;;;;;26.33;45.68;97680.34;4977970;28;20651;-65
2022/07/24 09:10:36;;;;;;;7.22;5.50;;;;;;;26.70;44.81;97676.66;4978172;28;20044;-65
2022/07/24 09:13:14;;;;;;;9.57;6.28;;;;;;;26.80;44.38;97684.50;4978960;28;20053;-65
2022/07/24 09:15:47;;;;;;;7.05;5.68;;;;;;;27.14;43.71;97689.84;4978544;28;20789;-65
2022/07/24 09:18:29;;;;;;;10.52;5.95;;;;;;;27.34;43.33;97679.66;4978913;28;20054;-65
2022/07/24 09:20:57;;;;;;;7.65;6.00;;;;;;;27.28;42.60;97681.09;4978739;28;20190;-65
2022/07/24 09:23:25;;;;;;;8.38;6.10;;;;;;;27.37;42.68;97683.69;4979036;28;20050;-65
2022/07/24 09:25:54;;;;;;;8.75;6.10;;;;;;;27.64;42.22;97682.03;4979152;28;20046;-65
2022/07/24 09:28:21;;;;;;;7.22;5.70;;;;;;;27.72;41.92;97685.81;4979513;28;20046;-65
2022/07/24 09:30:48;;;;;;;7.85;5.95;;;;;;;27.51;42.10;97684.06;4978823;28;20530;-65
2022/07/24 09:33:18;;;;;;;6.72;5.55;;;;;;;27.74;41.83;97688.22;4977458;28;20077;-65
2022/07/24 09:35:54;;;;;;;8.15;5.78;;;;;;;27.67;41.78;97679.72;4982422;28;20051;-65
2022/07/24 09:38:24;;;;;;;6.85;5.53;;;;;;;27.78;41.28;97680.78;4982575;28;20480;-65
2022/07/24 09:40:54;;;;;;;8.02;6.28;;;;;;;27.74;40.45;97685.44;4981876;28;20342;-65
2022/07/24 09:43:31;;;;;;;7.93;5.80;;;;;;;27.65;40.37;97680.06;4982674;28;20042;-65
2022/07/24 09:46:08;;;;;;;8.82;5.82;;;;;;;27.35;41.18;97677.69;4981718;28;20762;-65
2022/07/24 09:48:38;;;;;;;6.63;5.60;;;;;;;27.19;41.18;97670.13;4980647;28;20350;-65
2022/07/24 09:51:10;;;;;;;7.40;5.30;;;;;;;27.10;41.73;97667.53;4981398;28;20046;-65
2022/07/24 09:53:37;;;;;;;7.20;5.43;;;;;;;27.19;40.90;97669.31;4982374;28;20069;-65
2022/07/24 09:56:11;;;;;;;;;;;;;;;27.25;41.19;97673.44;4982868;28;20050;-65
2022/07/24 09:58:40;;;;;;;7.00;5.20;;;;;;;27.12;41.45;97667.94;4981431;28;20398;-65
2022/07/24 10:01:08;;;;;;;6.22;4.90;;;;;;;27.22;41.36;97669.41;4979778;28;20360;-65
2022/07/24 10:03:40;;;;;;;8.27;5.32;;;;;;;27.11;41.86;97665.53;4965366;28;20209;-72
2022/07/24 10:06:09;;;;;;;7.88;5.93;;;;;;;27.17;41.60;97668.88;4981530;28;20053;-66
2022/07/24 10:08:38;;;;;;;7.75;6.55;;;;;;;27.10;41.26;97677.81;4980400;28;20057;-66
2022/07/24 10:11:04;;;;;;;13.73;5.90;;;;;;;27.20;41.23;97666.16;4982412;28;20066;-66
2022/07/24 10:13:32;;;;;;;8.25;5.22;;;;;;;27.09;40.86;97662.31;4981326;28;20124;-66
2022/07/24 10:16:13;;;;;;;9.68;5.75;;;;;;;27.07;42.28;97659.88;4982849;28;20102;-66
2022/07/24 10:19:06;;;;;;;7.47;5.55;;;;;;;27.10;40.88;97658.38;4982292;28;20053;-66
2022/07/24 10:21:37;;;;;;;9.48;6.13;;;;;;;27.00;41.08;97663.28;4982960;28;20056;-66
2022/07/24 10:24:03;;;;;;;8.20;5.72;;;;;;;27.18;40.73;97668.50;4983309;28;20058;-66
2022/07/24 10:26:43;;;;;;;7.50;5.55;;;;;;;27.21;40.52;97662.25;4981952;28;20657;-65
2022/07/24 10:29:21;;;;;;;7.67;5.80;;;;;;;27.48;40.09;97662.53;4988711;28;20617;-71
2022/07/24 10:31:56;;;;;;;7.38;5.80;;;;;;;27.12;40.69;97656.84;4989672;28;20053;-66
2022/07/24 10:34:38;;;;;;;12.48;6.28;;;;;;;27.08;40.83;97653.16;4990743;28;20541;-70
2022/07/24 10:37:37;;;;;;;7.32;6.40;;;;;;;26.95;41.55;97655.19;4990160;28;20058;-71
2022/07/24 10:40:44;;;;;;;7.05;5.65;;;;;;;27.00;40.88;97649.38;4990106;28;20050;-70
2022/07/24 10:43:15;;;;;;;7.28;5.20;;;;;;;27.32;40.53;97645.03;4990170;28;20034;-66
2022/07/24 10:46:05;;;;;;;6.88;5.60;;;;;;;27.24;40.16;97644.84;4991461;28;20046;-69
2022/07/24 10:48:35;;;;;;;7.72;5.63;;;;;;;27.73;39.61;97650.44;4989866;28;20280;-72
2022/07/24 10:51:09;;;;;;;7.63;5.40;;;;;;;27.94;38.88;97643.78;4988258;28;20048;-65
2022/07/24 10:53:36;;;;;;;5.85;4.72;;;;;;;28.16;39.06;97637.53;4989363;28;20046;-64
2022/07/24 10:56:18;;;;;;;8.15;5.80;;;;;;;28.66;38.29;97645.41;4990787;28;20042;-72
2022/07/24 10:59:07;;;;;;;8.88;5.63;;;;;;;29.12;37.25;97641.16;4988710;28;20580;-73
2022/07/24 11:01:38;;;;;;;6.22;5.57;;;;;;;29.20;36.37;97639.28;4988578;28;20197;-65
2022/07/24 11:04:17;;;;;;;8.43;5.93;;;;;;;28.87;37.20;97635.03;4993289;28;20317;-70
2022/07/24 11:06:50;;;;;;;8.10;5.63;;;;;;;29.24;36.97;97633.75;4988787;28;20059;-72
2022/07/24 11:09:28;;;;;;;7.32;5.43;;;;;;;29.65;36.21;97633.28;4986524;28;20042;-71
2022/07/24 11:11:54;;;;;;;8.07;5.20;;;;;;;29.91;35.64;97631.69;4991597;28;20505;-66
2022/07/24 11:14:36;;;;;;;6.43;5.38;;;;;;;29.51;35.55;97634.63;4991746;28;20064;-68
2022/07/24 11:17:39;;;;;;;6.80;4.93;;;;;;;29.92;35.15;97622.16;4990522;28;20054;-66
2022/07/24 11:20:18;;;;;;;7.22;5.07;;;;;;;29.98;35.46;97624.25;4984314;28;20050;-72
2022/07/24 11:22:47;;;;;;;8.88;5.00;;;;;;;30.10;34.67;97614.03;4983763;28;20053;-67
2022/07/24 11:25:22;;;;;;;8.88;5.28;;;;;;;30.36;34.17;97616.03;4987990;28;20054;-67
2022/07/24 11:27:51;;;;;;;7.45;5.05;;;;;;;30.13;34.66;97607.75;4988612;28;20039;-67
2022/07/24 11:30:19;;;;;;;7.07;5.40;;;;;;;30.01;34.40;97616.31;4989780;28;20050;-67
2022/07/24 11:32:47;;;;;;;6.65;5.10;;;;;;;29.47;35.50;97617.84;4991413;28;20068;-66
2022/07/24 11:35:13;;;;;;;6.95;5.10;;;;;;;29.53;35.37;97609.19;4988873;28;20054;-67
2022/07/24 11:37:42;;;;;;;7.13;5.50;;;;;;;29.38;35.29;97610.91;4985998;28;20042;-66